Hauula, Hawaii
Current Conditions -  °F | °C
As of 3:58 AM on Friday 24 Oct 2014 (Local Time) from PHHI Reporting Station
Broken Clouds Broken Clouds  
Wind Chill: 70°   Ceiling: 2500
Heat Index: 70°   Visibility: 10mi
Dew Point: 68°   Wind: 2mph
Humidity: 94%   Direction: NA
Pressure: 30.01"   Gusts: NA
Location:  21.6°N, 157.9°W
Report Text: PHHI 241358Z VRB02KT 10SM BKN025 21/20 A3001 RMK AO2A DZB1356 SLP152 P0001 $
Loading
Personal Weather Stations






























Interactive Weather Map
Tropical Storm Tracking
New forecast layout! Learn more

10-Day Weather Forecast

Advertisements
Track Severe Weather on mobile